This is the latest recevied weather packets stored in our database for station/object DL3CSM-13. If no packets are shown the sender has not sent any weather packets the latest 10 day(s).
| Time | Temp. | Humidity | Pressure | Rain* | Wind** | Luminosity | Snow |
|---|---|---|---|---|---|---|---|
| 1777689911 | 5.56° C | 72% | 1024.3 hPa | 0 mm | - | - | - |
| 1777689011 | 6.67° C | 70% | 1024.3 hPa | 0 mm | - | - | - |
| 1777688111 | 7.22° C | 69% | 1024.3 hPa | 0 mm | - | - | - |
| 1777687211 | 7.78° C | 67% | 1024.4 hPa | 0 mm | - | - | - |
| 1777686311 | 7.78° C | 68% | 1024.4 hPa | 0 mm | - | - | - |
| 1777685411 | 7.22° C | 70% | 1024.4 hPa | 0 mm | - | - | - |
| 1777683611 | 6.11° C | 72% | 1024.6 hPa | 0 mm | - | - | - |
| 1777682711 | 6.11° C | 70% | 1024.7 hPa | 0 mm | - | - | - |
| 1777681811 | 6.67° C | 69% | 1024.9 hPa | 0 mm | - | - | - |
| 1777680911 | 7.22° C | 68% | 1025 hPa | 0 mm | - | - | - |
| 1777680011 | 7.78° C | 67% | 1025 hPa | 0 mm | - | - | - |
| 1777679111 | 8.33° C | 66% | 1025.3 hPa | 0 mm | - | - | - |
| 1777678211 | 8.89° C | 63% | 1025.3 hPa | 0 mm | - | - | - |
| 1777676411 | 10° C | 60% | 1025.3 hPa | 0 mm | - | - | - |
| 1777675511 | 10° C | 60% | 1025.4 hPa | 0 mm | - | - | - |
| 1777674612 | 10.56° C | 58% | 1025.5 hPa | 0 mm | - | - | - |
| 1777673711 | 11.11° C | 55% | 1025.7 hPa | 0 mm | - | - | - |
| 1777672811 | 11.11° C | 54% | 1025.6 hPa | 0 mm | - | - | - |
| 1777671911 | 11.67° C | 53% | 1025.6 hPa | 0 mm | - | - | - |
| 1777671012 | 11.67° C | 52% | 1025.5 hPa | 0 mm | - | - | - |
| 1777668311 | 12.22° C | 51% | 1025.7 hPa | 0 mm | - | - | - |
| 1777666511 | 12.22° C | 51% | 1025.8 hPa | 0 mm | - | - | - |
| 1777665611 | 12.78° C | 49% | 1025.8 hPa | 0 mm | - | - | - |
| 1777664711 | 13.33° C | 47% | 1025.7 hPa | 0 mm | - | - | - |
| 1777663811 | 13.89° C | 45% | 1025.6 hPa | 0 mm | - | - | - |
* Rain latest hour (hover to see other rain measurements)
** Current wind speed in m/s (hover to see current wind gust speed)